sensor_id;sensor_type;location;lat;lon;timestamp;P1;durP1;ratioP1;P2;durP2;ratioP2
12768;SDS011;6448;48.916;8.990;2023-03-14T00:00:25;0.40;;;0.40;;
12768;SDS011;6448;48.916;8.990;2023-03-14T00:01:27;0.40;;;0.40;;
12768;SDS011;6448;48.916;8.990;2023-03-14T00:02:28;0.52;;;0.52;;
12768;SDS011;6448;48.916;8.990;2023-03-14T00:03:30;0.50;;;0.50;;
12768;SDS011;6448;48.916;8.990;2023-03-14T00:04:30;0.40;;;0.40;;
12768;SDS011;6448;48.916;8.990;2023-03-14T00:05:33;0.40;;;0.40;;
12768;SDS011;6448;48.916;8.990;2023-03-14T00:06:34;1.05;;;0.40;;
12768;SDS011;6448;48.916;8.990;2023-03-14T00:07:37;0.40;;;0.40;;
12768;SDS011;6448;48.916;8.990;2023-03-14T00:08:39;0.60;;;0.60;;
12768;SDS011;6448;48.916;8.990;2023-03-14T00:09:41;0.50;;;0.50;;
12768;SDS011;6448;48.916;8.990;2023-03-14T00:10:42;0.40;;;0.40;;
12768;SDS011;6448;48.916;8.990;2023-03-14T00:11:44;0.50;;;0.50;;
12768;SDS011;6448;48.916;8.990;2023-03-14T00:12:45;0.60;;;0.60;;
12768;SDS011;6448;48.916;8.990;2023-03-14T00:13:49;0.50;;;0.50;;
12768;SDS011;6448;48.916;8.990;2023-03-14T00:14:50;0.60;;;0.60;;
12768;SDS011;6448;48.916;8.990;2023-03-14T00:15:52;0.50;;;0.50;;
12768;SDS011;6448;48.916;8.990;2023-03-14T00:16:53;0.50;;;0.50;;
12768;SDS011;6448;48.916;8.990;2023-03-14T00:17:55;0.52;;;0.52;;
12768;SDS011;6448;48.916;8.990;2023-03-14T00:18:56;0.60;;;0.50;;
12768;SDS011;6448;48.916;8.990;2023-03-14T00:19:59;0.43;;;0.43;;
12768;SDS011;6448;48.916;8.990;2023-03-14T00:21:05;0.60;;;0.60;;
12768;SDS011;6448;48.916;8.990;2023-03-14T00:22:09;0.50;;;0.50;;
12768;SDS011;6448;48.916;8.990;2023-03-14T00:23:09;0.40;;;0.40;;
12768;SDS011;6448;48.916;8.990;2023-03-14T00:24:11;0.50;;;0.50;;
12768;SDS011;6448;48.916;8.990;2023-03-14T00:25:13;0.50;;;0.50;;
12768;SDS011;6448;48.916;8.990;2023-03-14T00:26:15;0.55;;;0.55;;
12768;SDS011;6448;48.916;8.990;2023-03-14T00:27:18;0.43;;;0.43;;
12768;SDS011;6448;48.916;8.990;2023-03-14T00:28:19;0.55;;;0.50;;
12768;SDS011;6448;48.916;8.990;2023-03-14T00:29:23;0.70;;;0.70;;
12768;SDS011;6448;48.916;8.990;2023-03-14T00:30:23;0.60;;;0.60;;
12768;SDS011;6448;48.916;8.990;2023-03-14T00:31:25;0.68;;;0.60;;
12768;SDS011;6448;48.916;8.990;2023-03-14T00:32:26;0.50;;;0.50;;
12768;SDS011;6448;48.916;8.990;2023-03-14T00:33:28;0.77;;;0.73;;
12768;SDS011;6448;48.916;8.990;2023-03-14T00:34:28;0.77;;;0.60;;
12768;SDS011;6448;48.916;8.990;2023-03-14T00:35:30;0.52;;;0.52;;
12768;SDS011;6448;48.916;8.990;2023-03-14T00:36:31;0.50;;;0.50;;
12768;SDS011;6448;48.916;8.990;2023-03-14T00:37:33;0.50;;;0.50;;
12768;SDS011;6448;48.916;8.990;2023-03-14T00:38:34;0.70;;;0.70;;
12768;SDS011;6448;48.916;8.990;2023-03-14T00:39:38;0.93;;;0.60;;
12768;SDS011;6448;48.916;8.990;2023-03-14T00:40:39;0.60;;;0.60;;
12768;SDS011;6448;48.916;8.990;2023-03-14T00:41:41;0.60;;;0.60;;
12768;SDS011;6448;48.916;8.990;2023-03-14T00:42:42;0.60;;;0.60;;
12768;SDS011;6448;48.916;8.990;2023-03-14T00:43:43;0.90;;;0.57;;
12768;SDS011;6448;48.916;8.990;2023-03-14T00:44:46;0.60;;;0.60;;
12768;SDS011;6448;48.916;8.990;2023-03-14T00:45:48;0.60;;;0.60;;
12768;SDS011;6448;48.916;8.990;2023-03-14T00:46:49;0.77;;;0.70;;
12768;SDS011;6448;48.916;8.990;2023-03-14T00:47:50;0.60;;;0.60;;
12768;SDS011;6448;48.916;8.990;2023-03-14T00:48:51;0.60;;;0.60;;
12768;SDS011;6448;48.916;8.990;2023-03-14T00:49:53;0.50;;;0.50;;
12768;SDS011;6448;48.916;8.990;2023-03-14T00:50:54;0.82;;;0.70;;
12768;SDS011;6448;48.916;8.990;2023-03-14T00:51:55;0.57;;;0.57;;
12768;SDS011;6448;48.916;8.990;2023-03-14T00:52:56;0.80;;;0.70;;
12768;SDS011;6448;48.916;8.990;2023-03-14T00:53:59;0.60;;;0.60;;
12768;SDS011;6448;48.916;8.990;2023-03-14T00:55:00;0.60;;;0.60;;
12768;SDS011;6448;48.916;8.990;2023-03-14T00:56:02;0.70;;;0.70;;
12768;SDS011;6448;48.916;8.990;2023-03-14T00:57:05;0.73;;;0.70;;
12768;SDS011;6448;48.916;8.990;2023-03-14T00:58:07;0.60;;;0.60;;
12768;SDS011;6448;48.916;8.990;2023-03-14T00:59:08;0.60;;;0.60;;
12768;SDS011;6448;48.916;8.990;2023-03-14T01:00:11;0.77;;;0.77;;
12768;SDS011;6448;48.916;8.990;2023-03-14T01:01:14;0.70;;;0.70;;
12768;SDS011;6448;48.916;8.990;2023-03-14T01:02:17;0.68;;;0.60;;
12768;SDS011;6448;48.916;8.990;2023-03-14T01:03:17;0.60;;;0.60;;
12768;SDS011;6448;48.916;8.990;2023-03-14T01:04:19;0.80;;;0.70;;
12768;SDS011;6448;48.916;8.990;2023-03-14T01:05:21;0.70;;;0.70;;
12768;SDS011;6448;48.916;8.990;2023-03-14T01:06:23;0.80;;;0.80;;
12768;SDS011;6448;48.916;8.990;2023-03-14T01:07:25;0.70;;;0.70;;
12768;SDS011;6448;48.916;8.990;2023-03-14T01:08:27;0.68;;;0.68;;
12768;SDS011;6448;48.916;8.990;2023-03-14T01:09:28;0.80;;;0.57;;
12768;SDS011;6448;48.916;8.990;2023-03-14T01:10:30;0.60;;;0.60;;
12768;SDS011;6448;48.916;8.990;2023-03-14T01:11:32;0.70;;;0.70;;
12768;SDS011;6448;48.916;8.990;2023-03-14T01:12:35;0.90;;;0.60;;
12768;SDS011;6448;48.916;8.990;2023-03-14T01:13:36;0.77;;;0.60;;
12768;SDS011;6448;48.916;8.990;2023-03-14T01:14:38;0.70;;;0.60;;
12768;SDS011;6448;48.916;8.990;2023-03-14T01:15:40;0.60;;;0.60;;
12768;SDS011;6448;48.916;8.990;2023-03-14T01:16:45;0.60;;;0.60;;
12768;SDS011;6448;48.916;8.990;2023-03-14T01:17:45;0.60;;;0.60;;
12768;SDS011;6448;48.916;8.990;2023-03-14T01:18:47;0.60;;;0.60;;
12768;SDS011;6448;48.916;8.990;2023-03-14T01:19:50;0.70;;;0.70;;
12768;SDS011;6448;48.916;8.990;2023-03-14T01:20:52;0.50;;;0.50;;
12768;SDS011;6448;48.916;8.990;2023-03-14T01:21:52;0.60;;;0.60;;
12768;SDS011;6448;48.916;8.990;2023-03-14T01:22:54;0.50;;;0.50;;
12768;SDS011;6448;48.916;8.990;2023-03-14T01:23:56;0.60;;;0.60;;
12768;SDS011;6448;48.916;8.990;2023-03-14T01:24:59;0.70;;;0.70;;
12768;SDS011;6448;48.916;8.990;2023-03-14T01:25:59;0.60;;;0.60;;
12768;SDS011;6448;48.916;8.990;2023-03-14T01:27:01;0.70;;;0.70;;
12768;SDS011;6448;48.916;8.990;2023-03-14T01:28:02;0.50;;;0.50;;
12768;SDS011;6448;48.916;8.990;2023-03-14T01:29:04;0.50;;;0.50;;
12768;SDS011;6448;48.916;8.990;2023-03-14T01:30:10;0.50;;;0.50;;
12768;SDS011;6448;48.916;8.990;2023-03-14T01:31:14;0.65;;;0.65;;
12768;SDS011;6448;48.916;8.990;2023-03-14T01:32:16;0.47;;;0.47;;
12768;SDS011;6448;48.916;8.990;2023-03-14T01:33:17;0.55;;;0.55;;
12768;SDS011;6448;48.916;8.990;2023-03-14T01:34:19;0.80;;;0.70;;
12768;SDS011;6448;48.916;8.990;2023-03-14T01:35:22;0.60;;;0.52;;
12768;SDS011;6448;48.916;8.990;2023-03-14T01:36:23;0.55;;;0.50;;
12768;SDS011;6448;48.916;8.990;2023-03-14T01:37:25;0.60;;;0.60;;
12768;SDS011;6448;48.916;8.990;2023-03-14T01:38:26;0.60;;;0.60;;
12768;SDS011;6448;48.916;8.990;2023-03-14T01:39:28;0.80;;;0.60;;
12768;SDS011;6448;48.916;8.990;2023-03-14T01:40:28;0.77;;;0.70;;
12768;SDS011;6448;48.916;8.990;2023-03-14T01:41:30;0.60;;;0.60;;
12768;SDS011;6448;48.916;8.990;2023-03-14T01:42:33;0.50;;;0.50;;
12768;SDS011;6448;48.916;8.990;2023-03-14T01:43:35;0.95;;;0.60;;
12768;SDS011;6448;48.916;8.990;2023-03-14T01:44:49;0.93;;;0.60;;
12768;SDS011;6448;48.916;8.990;2023-03-14T01:47:31;0.50;;;0.50;;
12768;SDS011;6448;48.916;8.990;2023-03-14T01:48:33;0.60;;;0.60;;
12768;SDS011;6448;48.916;8.990;2023-03-14T01:49:38;0.50;;;0.50;;
12768;SDS011;6448;48.916;8.990;2023-03-14T01:50:43;0.50;;;0.50;;
12768;SDS011;6448;48.916;8.990;2023-03-14T01:51:45;0.40;;;0.40;;
12768;SDS011;6448;48.916;8.990;2023-03-14T01:52:51;0.45;;;0.45;;
12768;SDS011;6448;48.916;8.990;2023-03-14T01:53:52;0.50;;;0.40;;
12768;SDS011;6448;48.916;8.990;2023-03-14T01:55:02;0.50;;;0.50;;
12768;SDS011;6448;48.916;8.990;2023-03-14T01:56:06;1.00;;;0.55;;
12768;SDS011;6448;48.916;8.990;2023-03-14T01:57:10;0.70;;;0.70;;
12768;SDS011;6448;48.916;8.990;2023-03-14T01:58:15;0.70;;;0.70;;
12768;SDS011;6448;48.916;8.990;2023-03-14T01:59:17;0.50;;;0.50;;
12768;SDS011;6448;48.916;8.990;2023-03-14T02:00:21;0.50;;;0.50;;
12768;SDS011;6448;48.916;8.990;2023-03-14T02:01:24;0.60;;;0.60;;
12768;SDS011;6448;48.916;8.990;2023-03-14T02:02:28;0.50;;;0.50;;
12768;SDS011;6448;48.916;8.990;2023-03-14T02:03:30;0.55;;;0.55;;
12768;SDS011;6448;48.916;8.990;2023-03-14T02:04:38;0.50;;;0.50;;
12768;SDS011;6448;48.916;8.990;2023-03-14T02:05:41;0.52;;;0.52;;
12768;SDS011;6448;48.916;8.990;2023-03-14T02:06:53;0.50;;;0.50;;
12768;SDS011;6448;48.916;8.990;2023-03-14T02:08:04;0.60;;;0.60;;
12768;SDS011;6448;48.916;8.990;2023-03-14T02:09:17;0.40;;;0.40;;
12768;SDS011;6448;48.916;8.990;2023-03-14T02:10:20;0.60;;;0.60;;
12768;SDS011;6448;48.916;8.990;2023-03-14T02:11:23;0.43;;;0.43;;
12768;SDS011;6448;48.916;8.990;2023-03-14T02:12:49;0.60;;;0.60;;
12768;SDS011;6448;48.916;8.990;2023-03-14T02:14:15;0.45;;;0.45;;
12768;SDS011;6448;48.916;8.990;2023-03-14T02:15:48;0.40;;;0.40;;
12768;SDS011;6448;48.916;8.990;2023-03-14T02:17:09;0.52;;;0.52;;
12768;SDS011;6448;48.916;8.990;2023-03-14T02:18:34;0.50;;;0.50;;
12768;SDS011;6448;48.916;8.990;2023-03-14T02:19:55;0.50;;;0.50;;
12768;SDS011;6448;48.916;8.990;2023-03-14T02:21:12;0.50;;;0.50;;
12768;SDS011;6448;48.916;8.990;2023-03-14T02:22:19;0.57;;;0.57;;
12768;SDS011;6448;48.916;8.990;2023-03-14T02:23:29;0.70;;;0.50;;
12768;SDS011;6448;48.916;8.990;2023-03-14T02:24:38;0.50;;;0.50;;
12768;SDS011;6448;48.916;8.990;2023-03-14T02:25:48;0.50;;;0.50;;
12768;SDS011;6448;48.916;8.990;2023-03-14T02:27:11;0.50;;;0.50;;
12768;SDS011;6448;48.916;8.990;2023-03-14T02:28:16;0.50;;;0.50;;
12768;SDS011;6448;48.916;8.990;2023-03-14T02:29:21;0.47;;;0.47;;
12768;SDS011;6448;48.916;8.990;2023-03-14T02:30:24;0.50;;;0.50;;
12768;SDS011;6448;48.916;8.990;2023-03-14T02:31:27;0.60;;;0.52;;
12768;SDS011;6448;48.916;8.990;2023-03-14T02:32:28;1.23;;;0.60;;
12768;SDS011;6448;48.916;8.990;2023-03-14T02:33:32;0.60;;;0.60;;
12768;SDS011;6448;48.916;8.990;2023-03-14T02:34:33;0.47;;;0.47;;
12768;SDS011;6448;48.916;8.990;2023-03-14T02:35:37;0.55;;;0.55;;
12768;SDS011;6448;48.916;8.990;2023-03-14T02:36:43;0.50;;;0.50;;
12768;SDS011;6448;48.916;8.990;2023-03-14T02:37:46;0.47;;;0.47;;
12768;SDS011;6448;48.916;8.990;2023-03-14T02:38:50;0.50;;;0.50;;
12768;SDS011;6448;48.916;8.990;2023-03-14T02:39:59;0.50;;;0.50;;
12768;SDS011;6448;48.916;8.990;2023-03-14T02:41:00;0.67;;;0.53;;
12768;SDS011;6448;48.916;8.990;2023-03-14T02:42:05;0.40;;;0.40;;
12768;SDS011;6448;48.916;8.990;2023-03-14T02:43:08;0.50;;;0.50;;
12768;SDS011;6448;48.916;8.990;2023-03-14T02:44:12;0.57;;;0.57;;
12768;SDS011;6448;48.916;8.990;2023-03-14T02:46:37;0.60;;;0.50;;
12768;SDS011;6448;48.916;8.990;2023-03-14T02:47:40;0.40;;;0.40;;
12768;SDS011;6448;48.916;8.990;2023-03-14T02:48:45;0.40;;;0.40;;
12768;SDS011;6448;48.916;8.990;2023-03-14T02:49:53;0.70;;;0.60;;
12768;SDS011;6448;48.916;8.990;2023-03-14T02:51:00;0.52;;;0.52;;
12768;SDS011;6448;48.916;8.990;2023-03-14T02:52:03;0.40;;;0.40;;
12768;SDS011;6448;48.916;8.990;2023-03-14T02:53:04;0.75;;;0.50;;
12768;SDS011;6448;48.916;8.990;2023-03-14T02:54:06;0.47;;;0.47;;
12768;SDS011;6448;48.916;8.990;2023-03-14T02:55:07;0.45;;;0.45;;
12768;SDS011;6448;48.916;8.990;2023-03-14T02:56:13;0.50;;;0.50;;
12768;SDS011;6448;48.916;8.990;2023-03-14T02:57:14;0.50;;;0.50;;
12768;SDS011;6448;48.916;8.990;2023-03-14T02:58:17;0.47;;;0.47;;
12768;SDS011;6448;48.916;8.990;2023-03-14T02:59:21;0.50;;;0.50;;
12768;SDS011;6448;48.916;8.990;2023-03-14T03:00:27;0.50;;;0.50;;
12768;SDS011;6448;48.916;8.990;2023-03-14T03:01:28;0.60;;;0.60;;
12768;SDS011;6448;48.916;8.990;2023-03-14T03:02:29;0.60;;;0.60;;
12768;SDS011;6448;48.916;8.990;2023-03-14T03:03:31;1.60;;;0.60;;
12768;SDS011;6448;48.916;8.990;2023-03-14T03:04:33;0.60;;;0.52;;
12768;SDS011;6448;48.916;8.990;2023-03-14T03:05:34;0.50;;;0.50;;
12768;SDS011;6448;48.916;8.990;2023-03-14T03:06:36;0.60;;;0.60;;
12768;SDS011;6448;48.916;8.990;2023-03-14T03:07:37;0.55;;;0.50;;
12768;SDS011;6448;48.916;8.990;2023-03-14T03:08:39;0.52;;;0.52;;
12768;SDS011;6448;48.916;8.990;2023-03-14T03:09:40;0.60;;;0.52;;
12768;SDS011;6448;48.916;8.990;2023-03-14T03:10:42;0.40;;;0.40;;
12768;SDS011;6448;48.916;8.990;2023-03-14T03:11:42;0.50;;;0.50;;
12768;SDS011;6448;48.916;8.990;2023-03-14T03:12:50;0.55;;;0.52;;
12768;SDS011;6448;48.916;8.990;2023-03-14T03:13:52;0.60;;;0.50;;
12768;SDS011;6448;48.916;8.990;2023-03-14T03:14:55;0.60;;;0.60;;
12768;SDS011;6448;48.916;8.990;2023-03-14T03:15:56;0.60;;;0.60;;
12768;SDS011;6448;48.916;8.990;2023-03-14T03:16:57;0.80;;;0.70;;
12768;SDS011;6448;48.916;8.990;2023-03-14T03:17:58;0.60;;;0.60;;
12768;SDS011;6448;48.916;8.990;2023-03-14T03:19:00;0.70;;;0.70;;
12768;SDS011;6448;48.916;8.990;2023-03-14T03:20:01;0.70;;;0.70;;
12768;SDS011;6448;48.916;8.990;2023-03-14T03:21:05;0.60;;;0.60;;
12768;SDS011;6448;48.916;8.990;2023-03-14T03:22:08;0.60;;;0.60;;
12768;SDS011;6448;48.916;8.990;2023-03-14T03:23:14;0.50;;;0.50;;
12768;SDS011;6448;48.916;8.990;2023-03-14T03:24:15;0.60;;;0.50;;
12768;SDS011;6448;48.916;8.990;2023-03-14T03:25:17;0.93;;;0.80;;
12768;SDS011;6448;48.916;8.990;2023-03-14T03:26:19;1.02;;;0.60;;
12768;SDS011;6448;48.916;8.990;2023-03-14T03:27:21;1.05;;;0.80;;
12768;SDS011;6448;48.916;8.990;2023-03-14T03:28:22;0.60;;;0.60;;
12768;SDS011;6448;48.916;8.990;2023-03-14T03:29:26;0.70;;;0.70;;
12768;SDS011;6448;48.916;8.990;2023-03-14T03:30:27;0.60;;;0.60;;
12768;SDS011;6448;48.916;8.990;2023-03-14T03:31:29;0.60;;;0.60;;
12768;SDS011;6448;48.916;8.990;2023-03-14T03:32:30;0.90;;;0.73;;
12768;SDS011;6448;48.916;8.990;2023-03-14T03:33:32;0.52;;;0.52;;
12768;SDS011;6448;48.916;8.990;2023-03-14T03:34:33;0.60;;;0.60;;
12768;SDS011;6448;48.916;8.990;2023-03-14T03:35:41;0.90;;;0.68;;
12768;SDS011;6448;48.916;8.990;2023-03-14T03:36:42;0.63;;;0.60;;
12768;SDS011;6448;48.916;8.990;2023-03-14T03:37:45;0.60;;;0.60;;
12768;SDS011;6448;48.916;8.990;2023-03-14T03:38:46;0.55;;;0.50;;
12768;SDS011;6448;48.916;8.990;2023-03-14T03:39:49;0.70;;;0.70;;
12768;SDS011;6448;48.916;8.990;2023-03-14T03:40:50;0.80;;;0.70;;
12768;SDS011;6448;48.916;8.990;2023-03-14T03:41:52;0.85;;;0.80;;
12768;SDS011;6448;48.916;8.990;2023-03-14T03:42:53;0.88;;;0.60;;
12768;SDS011;6448;48.916;8.990;2023-03-14T03:43:56;0.93;;;0.70;;
12768;SDS011;6448;48.916;8.990;2023-03-14T03:44:59;0.80;;;0.80;;
12768;SDS011;6448;48.916;8.990;2023-03-14T03:46:03;0.60;;;0.60;;
12768;SDS011;6448;48.916;8.990;2023-03-14T03:47:04;0.65;;;0.60;;
12768;SDS011;6448;48.916;8.990;2023-03-14T03:48:07;0.60;;;0.60;;
12768;SDS011;6448;48.916;8.990;2023-03-14T03:49:08;0.57;;;0.57;;
12768;SDS011;6448;48.916;8.990;2023-03-14T03:50:10;0.70;;;0.70;;
12768;SDS011;6448;48.916;8.990;2023-03-14T03:51:12;0.55;;;0.55;;
12768;SDS011;6448;48.916;8.990;2023-03-14T03:52:14;0.70;;;0.70;;
12768;SDS011;6448;48.916;8.990;2023-03-14T03:53:15;0.98;;;0.80;;
12768;SDS011;6448;48.916;8.990;2023-03-14T03:54:17;0.70;;;0.70;;
12768;SDS011;6448;48.916;8.990;2023-03-14T03:55:18;0.75;;;0.70;;
12768;SDS011;6448;48.916;8.990;2023-03-14T03:56:20;0.70;;;0.68;;
12768;SDS011;6448;48.916;8.990;2023-03-14T03:57:22;0.95;;;0.70;;
12768;SDS011;6448;48.916;8.990;2023-03-14T03:58:24;1.20;;;0.90;;
12768;SDS011;6448;48.916;8.990;2023-03-14T03:59:26;1.20;;;0.73;;
12768;SDS011;6448;48.916;8.990;2023-03-14T04:00:28;0.70;;;0.70;;
12768;SDS011;6448;48.916;8.990;2023-03-14T04:01:31;0.70;;;0.70;;
12768;SDS011;6448;48.916;8.990;2023-03-14T04:02:33;1.52;;;0.80;;
12768;SDS011;6448;48.916;8.990;2023-03-14T04:03:35;1.00;;;0.73;;
12768;SDS011;6448;48.916;8.990;2023-03-14T04:04:38;0.82;;;0.75;;
12768;SDS011;6448;48.916;8.990;2023-03-14T04:05:40;1.00;;;0.90;;
12768;SDS011;6448;48.916;8.990;2023-03-14T04:06:43;1.00;;;0.80;;
12768;SDS011;6448;48.916;8.990;2023-03-14T04:07:45;1.08;;;0.80;;
12768;SDS011;6448;48.916;8.990;2023-03-14T04:08:49;1.00;;;0.70;;
12768;SDS011;6448;48.916;8.990;2023-03-14T04:10:14;1.00;;;0.75;;
12768;SDS011;6448;48.916;8.990;2023-03-14T04:11:23;0.98;;;0.68;;
12768;SDS011;6448;48.916;8.990;2023-03-14T04:12:36;0.75;;;0.70;;
12768;SDS011;6448;48.916;8.990;2023-03-14T04:13:41;0.80;;;0.70;;
12768;SDS011;6448;48.916;8.990;2023-03-14T04:14:43;0.80;;;0.60;;
12768;SDS011;6448;48.916;8.990;2023-03-14T04:15:52;1.10;;;0.68;;
12768;SDS011;6448;48.916;8.990;2023-03-14T04:16:58;0.90;;;0.70;;
12768;SDS011;6448;48.916;8.990;2023-03-14T04:17:59;0.80;;;0.70;;
12768;SDS011;6448;48.916;8.990;2023-03-14T04:19:00;0.60;;;0.60;;
12768;SDS011;6448;48.916;8.990;2023-03-14T04:20:04;0.63;;;0.63;;
12768;SDS011;6448;48.916;8.990;2023-03-14T04:21:10;1.20;;;0.80;;
12768;SDS011;6448;48.916;8.990;2023-03-14T04:22:23;0.93;;;0.80;;
12768;SDS011;6448;48.916;8.990;2023-03-14T04:23:26;1.10;;;0.93;;
12768;SDS011;6448;48.916;8.990;2023-03-14T04:24:28;1.10;;;0.80;;
12768;SDS011;6448;48.916;8.990;2023-03-14T04:25:31;0.95;;;0.70;;
12768;SDS011;6448;48.916;8.990;2023-03-14T04:26:35;0.75;;;0.60;;
12768;SDS011;6448;48.916;8.990;2023-03-14T04:27:37;1.48;;;0.80;;
12768;SDS011;6448;48.916;8.990;2023-03-14T04:28:43;1.00;;;0.80;;
12768;SDS011;6448;48.916;8.990;2023-03-14T04:29:45;0.98;;;0.85;;
12768;SDS011;6448;48.916;8.990;2023-03-14T04:30:49;1.17;;;0.80;;
12768;SDS011;6448;48.916;8.990;2023-03-14T04:31:57;0.93;;;0.77;;
12768;SDS011;6448;48.916;8.990;2023-03-14T04:32:58;1.33;;;0.90;;
12768;SDS011;6448;48.916;8.990;2023-03-14T04:34:01;1.00;;;0.70;;
12768;SDS011;6448;48.916;8.990;2023-03-14T04:35:09;0.73;;;0.70;;
12768;SDS011;6448;48.916;8.990;2023-03-14T04:36:11;1.48;;;0.88;;
12768;SDS011;6448;48.916;8.990;2023-03-14T04:37:13;0.73;;;0.70;;
12768;SDS011;6448;48.916;8.990;2023-03-14T04:38:17;1.33;;;0.90;;
12768;SDS011;6448;48.916;8.990;2023-03-14T04:39:20;0.88;;;0.70;;
12768;SDS011;6448;48.916;8.990;2023-03-14T04:40:29;1.08;;;0.80;;
12768;SDS011;6448;48.916;8.990;2023-03-14T04:41:35;0.80;;;0.80;;
12768;SDS011;6448;48.916;8.990;2023-03-14T04:42:36;0.85;;;0.82;;
12768;SDS011;6448;48.916;8.990;2023-03-14T04:43:39;1.20;;;0.80;;
12768;SDS011;6448;48.916;8.990;2023-03-14T04:44:42;1.05;;;0.73;;
12768;SDS011;6448;48.916;8.990;2023-03-14T04:45:45;1.10;;;0.80;;
12768;SDS011;6448;48.916;8.990;2023-03-14T04:46:45;0.90;;;0.70;;
12768;SDS011;6448;48.916;8.990;2023-03-14T04:47:49;0.80;;;0.68;;
12768;SDS011;6448;48.916;8.990;2023-03-14T04:48:53;0.77;;;0.70;;
12768;SDS011;6448;48.916;8.990;2023-03-14T04:49:56;1.20;;;0.82;;
12768;SDS011;6448;48.916;8.990;2023-03-14T04:50:58;1.35;;;0.85;;
12768;SDS011;6448;48.916;8.990;2023-03-14T04:52:04;0.80;;;0.68;;
12768;SDS011;6448;48.916;8.990;2023-03-14T04:53:06;0.80;;;0.70;;
12768;SDS011;6448;48.916;8.990;2023-03-14T04:54:09;0.95;;;0.73;;
12768;SDS011;6448;48.916;8.990;2023-03-14T04:55:10;1.00;;;0.70;;
12768;SDS011;6448;48.916;8.990;2023-03-14T04:56:12;1.17;;;0.90;;
12768;SDS011;6448;48.916;8.990;2023-03-14T04:57:15;1.10;;;0.73;;
12768;SDS011;6448;48.916;8.990;2023-03-14T04:58:17;0.70;;;0.70;;
12768;SDS011;6448;48.916;8.990;2023-03-14T04:59:19;0.93;;;0.80;;
12768;SDS011;6448;48.916;8.990;2023-03-14T05:00:22;1.10;;;0.80;;
12768;SDS011;6448;48.916;8.990;2023-03-14T05:01:42;0.85;;;0.75;;
12768;SDS011;6448;48.916;8.990;2023-03-14T05:03:04;0.82;;;0.77;;
12768;SDS011;6448;48.916;8.990;2023-03-14T05:04:24;0.80;;;0.80;;
12768;SDS011;6448;48.916;8.990;2023-03-14T05:05:41;0.80;;;0.73;;
12768;SDS011;6448;48.916;8.990;2023-03-14T05:06:58;1.20;;;0.73;;
12768;SDS011;6448;48.916;8.990;2023-03-14T05:08:18;0.70;;;0.70;;
12768;SDS011;6448;48.916;8.990;2023-03-14T05:09:40;0.60;;;0.60;;
12768;SDS011;6448;48.916;8.990;2023-03-14T05:11:16;1.02;;;0.88;;
12768;SDS011;6448;48.916;8.990;2023-03-14T05:12:30;0.85;;;0.70;;
12768;SDS011;6448;48.916;8.990;2023-03-14T05:13:52;1.00;;;0.80;;
12768;SDS011;6448;48.916;8.990;2023-03-14T05:15:13;1.05;;;0.70;;
12768;SDS011;6448;48.916;8.990;2023-03-14T05:16:25;1.00;;;0.90;;
12768;SDS011;6448;48.916;8.990;2023-03-14T05:17:56;0.50;;;0.50;;
12768;SDS011;6448;48.916;8.990;2023-03-14T05:19:25;0.88;;;0.70;;
12768;SDS011;6448;48.916;8.990;2023-03-14T05:20:50;1.10;;;0.80;;
12768;SDS011;6448;48.916;8.990;2023-03-14T05:21:57;0.70;;;0.70;;
12768;SDS011;6448;48.916;8.990;2023-03-14T05:23:22;1.25;;;0.90;;
12768;SDS011;6448;48.916;8.990;2023-03-14T05:24:34;0.70;;;0.70;;
12768;SDS011;6448;48.916;8.990;2023-03-14T05:25:36;0.70;;;0.63;;
12768;SDS011;6448;48.916;8.990;2023-03-14T05:26:49;1.35;;;0.80;;
12768;SDS011;6448;48.916;8.990;2023-03-14T05:28:14;0.82;;;0.70;;
12768;SDS011;6448;48.916;8.990;2023-03-14T05:29:24;1.02;;;0.77;;
12768;SDS011;6448;48.916;8.990;2023-03-14T05:30:34;1.47;;;0.83;;
12768;SDS011;6448;48.916;8.990;2023-03-14T05:31:55;0.70;;;0.70;;
12768;SDS011;6448;48.916;8.990;2023-03-14T05:33:12;1.10;;;0.80;;
12768;SDS011;6448;48.916;8.990;2023-03-14T05:34:25;0.80;;;0.80;;
12768;SDS011;6448;48.916;8.990;2023-03-14T05:35:43;1.58;;;0.90;;
12768;SDS011;6448;48.916;8.990;2023-03-14T05:37:07;1.15;;;0.80;;
12768;SDS011;6448;48.916;8.990;2023-03-14T05:38:16;0.90;;;0.80;;
12768;SDS011;6448;48.916;8.990;2023-03-14T05:39:18;0.80;;;0.80;;
12768;SDS011;6448;48.916;8.990;2023-03-14T05:40:29;1.00;;;0.90;;
12768;SDS011;6448;48.916;8.990;2023-03-14T05:41:51;0.77;;;0.73;;
12768;SDS011;6448;48.916;8.990;2023-03-14T05:42:55;0.80;;;0.80;;
12768;SDS011;6448;48.916;8.990;2023-03-14T05:44:08;1.02;;;0.80;;
12768;SDS011;6448;48.916;8.990;2023-03-14T05:45:33;1.48;;;0.95;;
12768;SDS011;6448;48.916;8.990;2023-03-14T05:46:44;0.70;;;0.70;;
12768;SDS011;6448;48.916;8.990;2023-03-14T05:48:03;1.05;;;0.90;;
12768;SDS011;6448;48.916;8.990;2023-03-14T05:49:29;0.95;;;0.77;;
12768;SDS011;6448;48.916;8.990;2023-03-14T05:50:46;0.95;;;0.80;;
12768;SDS011;6448;48.916;8.990;2023-03-14T05:51:48;1.33;;;0.75;;
12768;SDS011;6448;48.916;8.990;2023-03-14T05:53:18;1.13;;;0.70;;
12768;SDS011;6448;48.916;8.990;2023-03-14T05:54:28;0.90;;;0.80;;
12768;SDS011;6448;48.916;8.990;2023-03-14T05:55:52;0.77;;;0.70;;
12768;SDS011;6448;48.916;8.990;2023-03-14T05:57:10;0.80;;;0.60;;
12768;SDS011;6448;48.916;8.990;2023-03-14T05:58:29;0.80;;;0.70;;
12768;SDS011;6448;48.916;8.990;2023-03-14T05:59:42;0.80;;;0.70;;
12768;SDS011;6448;48.916;8.990;2023-03-14T06:01:11;0.98;;;0.80;;
12768;SDS011;6448;48.916;8.990;2023-03-14T06:02:35;1.40;;;0.90;;
12768;SDS011;6448;48.916;8.990;2023-03-14T06:03:46;0.97;;;0.77;;
12768;SDS011;6448;48.916;8.990;2023-03-14T06:04:48;1.27;;;0.80;;
12768;SDS011;6448;48.916;8.990;2023-03-14T06:05:50;0.82;;;0.70;;
12768;SDS011;6448;48.916;8.990;2023-03-14T06:06:52;0.88;;;0.77;;
12768;SDS011;6448;48.916;8.990;2023-03-14T06:07:54;1.13;;;0.80;;
12768;SDS011;6448;48.916;8.990;2023-03-14T06:08:55;1.27;;;0.90;;
12768;SDS011;6448;48.916;8.990;2023-03-14T06:09:57;1.08;;;0.70;;
12768;SDS011;6448;48.916;8.990;2023-03-14T06:10:58;1.00;;;0.70;;
12768;SDS011;6448;48.916;8.990;2023-03-14T06:12:04;0.75;;;0.70;;
12768;SDS011;6448;48.916;8.990;2023-03-14T06:13:11;0.70;;;0.70;;
12768;SDS011;6448;48.916;8.990;2023-03-14T06:14:17;1.00;;;0.70;;
12768;SDS011;6448;48.916;8.990;2023-03-14T07:06:24;0.77;;;0.70;;
12768;SDS011;6448;48.916;8.990;2023-03-14T07:07:25;0.43;;;0.43;;
12768;SDS011;6448;48.916;8.990;2023-03-14T07:08:27;0.75;;;0.70;;
12768;SDS011;6448;48.916;8.990;2023-03-14T07:09:29;1.20;;;0.80;;
12768;SDS011;6448;48.916;8.990;2023-03-14T07:10:33;0.80;;;0.70;;
12768;SDS011;6448;48.916;8.990;2023-03-14T07:11:36;0.60;;;0.60;;
12768;SDS011;6448;48.916;8.990;2023-03-14T07:12:37;0.60;;;0.55;;
12768;SDS011;6448;48.916;8.990;2023-03-14T07:13:39;0.75;;;0.70;;
12768;SDS011;6448;48.916;8.990;2023-03-14T07:14:41;0.70;;;0.70;;
12768;SDS011;6448;48.916;8.990;2023-03-14T07:15:44;0.65;;;0.60;;
12768;SDS011;6448;48.916;8.990;2023-03-14T07:16:45;0.50;;;0.50;;
12768;SDS011;6448;48.916;8.990;2023-03-14T07:17:47;0.82;;;0.70;;
12768;SDS011;6448;48.916;8.990;2023-03-14T07:18:48;0.82;;;0.52;;
12768;SDS011;6448;48.916;8.990;2023-03-14T07:19:50;0.75;;;0.60;;
12768;SDS011;6448;48.916;8.990;2023-03-14T07:20:52;0.75;;;0.60;;
12768;SDS011;6448;48.916;8.990;2023-03-14T07:21:55;0.75;;;0.65;;
12768;SDS011;6448;48.916;8.990;2023-03-14T07:23:00;0.60;;;0.60;;
12768;SDS011;6448;48.916;8.990;2023-03-14T07:56:53;0.50;;;0.50;;
12768;SDS011;6448;48.916;8.990;2023-03-14T07:57:53;0.57;;;0.57;;
12768;SDS011;6448;48.916;8.990;2023-03-14T07:58:56;0.38;;;0.35;;
12768;SDS011;6448;48.916;8.990;2023-03-14T07:59:58;0.40;;;0.40;;
12768;SDS011;6448;48.916;8.990;2023-03-14T08:00:59;0.57;;;0.50;;
12768;SDS011;6448;48.916;8.990;2023-03-14T08:02:01;0.77;;;0.57;;
12768;SDS011;6448;48.916;8.990;2023-03-14T08:03:01;0.60;;;0.60;;
12768;SDS011;6448;48.916;8.990;2023-03-14T08:04:03;0.50;;;0.50;;
12768;SDS011;6448;48.916;8.990;2023-03-14T08:05:04;0.95;;;0.60;;
12768;SDS011;6448;48.916;8.990;2023-03-14T08:06:06;3.65;;;0.60;;